sensor_id;sensor_type;location;lat;lon;timestamp;temperature;humidity
10901;DHT22;5503;53.208;10.392;2024-02-26T00:01:16;5.00;99.90
10901;DHT22;5503;53.208;10.392;2024-02-26T00:03:44;5.10;99.90
10901;DHT22;5503;53.208;10.392;2024-02-26T00:06:13;5.10;99.90
10901;DHT22;5503;53.208;10.392;2024-02-26T00:08:39;5.20;1.00
10901;DHT22;5503;53.208;10.392;2024-02-26T00:11:09;5.20;59.60
10901;DHT22;5503;53.208;10.392;2024-02-26T00:13:36;7.60;10.20
10901;DHT22;5503;53.208;10.392;2024-02-26T00:16:03;5.10;10.20
10901;DHT22;5503;53.208;10.392;2024-02-26T00:18:30;4.90;69.90
10901;DHT22;5503;53.208;10.392;2024-02-26T00:20:58;4.90;83.60
10901;DHT22;5503;53.208;10.392;2024-02-26T00:23:26;5.10;45.80
10901;DHT22;5503;53.208;10.392;2024-02-26T00:25:53;4.90;65.80
10901;DHT22;5503;53.208;10.392;2024-02-26T00:28:20;5.00;32.50
10901;DHT22;5503;53.208;10.392;2024-02-26T00:30:47;5.00;1.00
10901;DHT22;5503;53.208;10.392;2024-02-26T00:33:16;4.70;73.80
10901;DHT22;5503;53.208;10.392;2024-02-26T00:35:43;4.40;99.90
10901;DHT22;5503;53.208;10.392;2024-02-26T00:38:12;4.30;99.90
10901;DHT22;5503;53.208;10.392;2024-02-26T00:40:38;4.30;99.90
10901;DHT22;5503;53.208;10.392;2024-02-26T00:43:06;7.20;99.90
10901;DHT22;5503;53.208;10.392;2024-02-26T00:45:33;4.30;99.90
10901;DHT22;5503;53.208;10.392;2024-02-26T00:48:00;5.70;99.90
10901;DHT22;5503;53.208;10.392;2024-02-26T00:50:30;4.10;99.90
10901;DHT22;5503;53.208;10.392;2024-02-26T00:52:57;4.10;1.00
10901;DHT22;5503;53.208;10.392;2024-02-26T00:55:25;4.20;99.90
10901;DHT22;5503;53.208;10.392;2024-02-26T00:57:52;4.10;99.90
10901;DHT22;5503;53.208;10.392;2024-02-26T01:00:19;4.10;99.90
10901;DHT22;5503;53.208;10.392;2024-02-26T01:02:46;4.30;99.90
10901;DHT22;5503;53.208;10.392;2024-02-26T01:05:13;4.30;1.00
10901;DHT22;5503;53.208;10.392;2024-02-26T01:07:40;4.20;52.50
10901;DHT22;5503;53.208;10.392;2024-02-26T01:10:07;4.40;11.70
10901;DHT22;5503;53.208;10.392;2024-02-26T01:12:36;4.40;1.00
10901;DHT22;5503;53.208;10.392;2024-02-26T01:15:03;4.60;1.00
10901;DHT22;5503;53.208;10.392;2024-02-26T01:17:30;4.20;1.00
10901;DHT22;5503;53.208;10.392;2024-02-26T01:19:57;4.10;99.90
10901;DHT22;5503;53.208;10.392;2024-02-26T01:22:24;4.10;99.90
10901;DHT22;5503;53.208;10.392;2024-02-26T01:24:51;4.20;61.00
10901;DHT22;5503;53.208;10.392;2024-02-26T01:27:18;4.20;89.80
10901;DHT22;5503;53.208;10.392;2024-02-26T01:29:46;4.30;24.10
10901;DHT22;5503;53.208;10.392;2024-02-26T01:32:13;4.20;1.00
10901;DHT22;5503;53.208;10.392;2024-02-26T01:34:40;4.00;92.10
10901;DHT22;5503;53.208;10.392;2024-02-26T01:37:07;3.90;99.90
10901;DHT22;5503;53.208;10.392;2024-02-26T01:39:34;3.80;1.00
10901;DHT22;5503;53.208;10.392;2024-02-26T01:42:01;3.90;1.00
10901;DHT22;5503;53.208;10.392;2024-02-26T01:44:28;4.50;1.00
10901;DHT22;5503;53.208;10.392;2024-02-26T01:46:56;3.80;1.00
10901;DHT22;5503;53.208;10.392;2024-02-26T01:49:23;3.60;1.00
10901;DHT22;5503;53.208;10.392;2024-02-26T01:51:50;3.70;1.00
10901;DHT22;5503;53.208;10.392;2024-02-26T01:54:17;3.50;1.00
10901;DHT22;5503;53.208;10.392;2024-02-26T01:56:44;3.60;1.00
10901;DHT22;5503;53.208;10.392;2024-02-26T01:59:11;3.70;1.00
10901;DHT22;5503;53.208;10.392;2024-02-26T02:01:39;3.80;99.90
10901;DHT22;5503;53.208;10.392;2024-02-26T02:04:12;3.60;1.00
10901;DHT22;5503;53.208;10.392;2024-02-26T02:06:40;3.60;1.00
10901;DHT22;5503;53.208;10.392;2024-02-26T02:09:08;2.40;1.00
10901;DHT22;5503;53.208;10.392;2024-02-26T02:11:35;3.70;1.00
10901;DHT22;5503;53.208;10.392;2024-02-26T02:14:02;3.40;99.90
10901;DHT22;5503;53.208;10.392;2024-02-26T02:16:29;3.70;99.90
10901;DHT22;5503;53.208;10.392;2024-02-26T02:18:56;3.50;1.00
10901;DHT22;5503;53.208;10.392;2024-02-26T02:21:24;3.50;1.00
10901;DHT22;5503;53.208;10.392;2024-02-26T02:23:51;3.50;1.00
10901;DHT22;5503;53.208;10.392;2024-02-26T02:26:19;3.30;1.00
10901;DHT22;5503;53.208;10.392;2024-02-26T02:28:46;3.50;1.00
10901;DHT22;5503;53.208;10.392;2024-02-26T02:31:13;3.40;1.00
10901;DHT22;5503;53.208;10.392;2024-02-26T02:33:41;3.50;1.00
10901;DHT22;5503;53.208;10.392;2024-02-26T02:36:08;3.60;99.90
10901;DHT22;5503;53.208;10.392;2024-02-26T02:38:37;6.20;91.40
10901;DHT22;5503;53.208;10.392;2024-02-26T02:41:04;3.80;95.30
10901;DHT22;5503;53.208;10.392;2024-02-26T02:43:31;3.70;99.90
10901;DHT22;5503;53.208;10.392;2024-02-26T02:45:58;3.40;99.90
10901;DHT22;5503;53.208;10.392;2024-02-26T02:48:25;3.40;99.90
10901;DHT22;5503;53.208;10.392;2024-02-26T02:50:52;3.30;1.00
10901;DHT22;5503;53.208;10.392;2024-02-26T02:55:47;3.00;1.00
10901;DHT22;5503;53.208;10.392;2024-02-26T02:58:15;3.20;1.00
10901;DHT22;5503;53.208;10.392;2024-02-26T03:00:41;3.10;1.00
10901;DHT22;5503;53.208;10.392;2024-02-26T03:03:08;3.00;1.00
10901;DHT22;5503;53.208;10.392;2024-02-26T03:05:35;3.00;1.00
10901;DHT22;5503;53.208;10.392;2024-02-26T03:08:02;3.10;1.00
10901;DHT22;5503;53.208;10.392;2024-02-26T03:10:29;3.10;1.00
10901;DHT22;5503;53.208;10.392;2024-02-26T03:12:58;3.10;1.00
10901;DHT22;5503;53.208;10.392;2024-02-26T03:15:25;3.10;1.00
10901;DHT22;5503;53.208;10.392;2024-02-26T03:17:52;3.80;1.00
10901;DHT22;5503;53.208;10.392;2024-02-26T03:20:19;3.10;1.00
10901;DHT22;5503;53.208;10.392;2024-02-26T03:22:46;3.00;1.00
10901;DHT22;5503;53.208;10.392;2024-02-26T03:25:13;3.10;1.00
10901;DHT22;5503;53.208;10.392;2024-02-26T03:27:40;3.00;99.90
10901;DHT22;5503;53.208;10.392;2024-02-26T03:30:09;2.90;99.90
10901;DHT22;5503;53.208;10.392;2024-02-26T03:32:36;3.00;1.00
10901;DHT22;5503;53.208;10.392;2024-02-26T03:35:03;3.10;1.00
10901;DHT22;5503;53.208;10.392;2024-02-26T03:37:30;3.10;1.00
10901;DHT22;5503;53.208;10.392;2024-02-26T03:39:57;3.30;1.00
10901;DHT22;5503;53.208;10.392;2024-02-26T03:42:24;3.20;99.90
10901;DHT22;5503;53.208;10.392;2024-02-26T03:44:51;3.20;99.90
10901;DHT22;5503;53.208;10.392;2024-02-26T03:47:19;3.20;99.90
10901;DHT22;5503;53.208;10.392;2024-02-26T03:49:46;3.20;99.90
10901;DHT22;5503;53.208;10.392;2024-02-26T03:52:13;3.10;99.90
10901;DHT22;5503;53.208;10.392;2024-02-26T03:54:40;3.20;99.90
10901;DHT22;5503;53.208;10.392;2024-02-26T03:57:07;-0.10;16.80
10901;DHT22;5503;53.208;10.392;2024-02-26T03:59:34;3.30;41.40
10901;DHT22;5503;53.208;10.392;2024-02-26T04:02:01;3.10;99.90
10901;DHT22;5503;53.208;10.392;2024-02-26T04:04:29;1.80;99.90
10901;DHT22;5503;53.208;10.392;2024-02-26T04:06:56;3.10;99.90
10901;DHT22;5503;53.208;10.392;2024-02-26T04:09:23;3.10;99.90
10901;DHT22;5503;53.208;10.392;2024-02-26T04:11:50;3.10;99.90
10901;DHT22;5503;53.208;10.392;2024-02-26T04:14:17;3.20;99.90
10901;DHT22;5503;53.208;10.392;2024-02-26T04:16:43;3.20;99.90
10901;DHT22;5503;53.208;10.392;2024-02-26T04:19:10;3.20;99.90
10901;DHT22;5503;53.208;10.392;2024-02-26T04:21:41;3.30;99.90
10901;DHT22;5503;53.208;10.392;2024-02-26T04:24:08;3.30;99.90
10901;DHT22;5503;53.208;10.392;2024-02-26T04:26:35;5.90;99.90
10901;DHT22;5503;53.208;10.392;2024-02-26T04:29:02;3.30;35.80
10901;DHT22;5503;53.208;10.392;2024-02-26T04:31:28;3.40;18.00
10901;DHT22;5503;53.208;10.392;2024-02-26T04:33:58;3.50;1.00
10901;DHT22;5503;53.208;10.392;2024-02-26T04:36:25;3.40;1.00
10901;DHT22;5503;53.208;10.392;2024-02-26T04:38:53;3.30;1.00
10901;DHT22;5503;53.208;10.392;2024-02-26T04:41:21;3.20;50.10
10901;DHT22;5503;53.208;10.392;2024-02-26T04:43:48;3.00;12.20
10901;DHT22;5503;53.208;10.392;2024-02-26T04:46:15;2.90;34.20
10901;DHT22;5503;53.208;10.392;2024-02-26T04:48:41;2.80;99.90
10901;DHT22;5503;53.208;10.392;2024-02-26T04:51:10;3.00;99.90
10901;DHT22;5503;53.208;10.392;2024-02-26T04:53:37;3.10;1.00
10901;DHT22;5503;53.208;10.392;2024-02-26T04:56:06;3.20;1.00
10901;DHT22;5503;53.208;10.392;2024-02-26T04:58:33;3.30;1.00
10901;DHT22;5503;53.208;10.392;2024-02-26T05:01:00;3.20;1.00
10901;DHT22;5503;53.208;10.392;2024-02-26T05:03:26;3.20;1.00
10901;DHT22;5503;53.208;10.392;2024-02-26T05:05:53;3.10;1.00
10901;DHT22;5503;53.208;10.392;2024-02-26T05:08:20;3.20;25.40
10901;DHT22;5503;53.208;10.392;2024-02-26T05:10:47;3.20;99.90
10901;DHT22;5503;53.208;10.392;2024-02-26T05:13:15;3.10;86.40
10901;DHT22;5503;53.208;10.392;2024-02-26T05:15:43;3.10;12.00
10901;DHT22;5503;53.208;10.392;2024-02-26T05:18:12;3.10;13.70
10901;DHT22;5503;53.208;10.392;2024-02-26T05:20:39;3.20;99.90
10901;DHT22;5503;53.208;10.392;2024-02-26T05:23:06;3.10;95.70
10901;DHT22;5503;53.208;10.392;2024-02-26T05:25:32;3.10;95.00
10901;DHT22;5503;53.208;10.392;2024-02-26T05:27:59;3.20;99.90
10901;DHT22;5503;53.208;10.392;2024-02-26T05:30:27;3.30;26.90
10901;DHT22;5503;53.208;10.392;2024-02-26T05:32:54;3.20;99.90
10901;DHT22;5503;53.208;10.392;2024-02-26T05:35:21;3.10;99.90
10901;DHT22;5503;53.208;10.392;2024-02-26T05:37:48;3.10;99.90
10901;DHT22;5503;53.208;10.392;2024-02-26T05:40:15;3.30;99.90
10901;DHT22;5503;53.208;10.392;2024-02-26T05:42:42;3.30;75.60
10901;DHT22;5503;53.208;10.392;2024-02-26T05:45:11;3.20;99.90
10901;DHT22;5503;53.208;10.392;2024-02-26T05:47:39;3.20;99.90
10901;DHT22;5503;53.208;10.392;2024-02-26T05:50:08;3.50;99.90
10901;DHT22;5503;53.208;10.392;2024-02-26T05:52:36;3.40;99.90
10901;DHT22;5503;53.208;10.392;2024-02-26T05:55:04;3.30;99.90
10901;DHT22;5503;53.208;10.392;2024-02-26T05:57:31;5.10;99.90
10901;DHT22;5503;53.208;10.392;2024-02-26T05:59:58;3.20;99.90
10901;DHT22;5503;53.208;10.392;2024-02-26T06:02:29;3.20;99.90
10901;DHT22;5503;53.208;10.392;2024-02-26T06:04:57;3.20;1.00
10901;DHT22;5503;53.208;10.392;2024-02-26T06:07:24;3.10;1.00
10901;DHT22;5503;53.208;10.392;2024-02-26T06:09:51;5.70;1.00
10901;DHT22;5503;53.208;10.392;2024-02-26T06:12:18;3.20;99.90
10901;DHT22;5503;53.208;10.392;2024-02-26T06:14:45;4.40;99.90
10901;DHT22;5503;53.208;10.392;2024-02-26T06:17:12;3.50;99.90
10901;DHT22;5503;53.208;10.392;2024-02-26T06:19:39;3.50;99.90
10901;DHT22;5503;53.208;10.392;2024-02-26T06:22:07;3.40;99.90
10901;DHT22;5503;53.208;10.392;2024-02-26T06:24:34;3.40;99.90
10901;DHT22;5503;53.208;10.392;2024-02-26T06:27:01;3.40;99.90
10901;DHT22;5503;53.208;10.392;2024-02-26T06:29:28;3.40;99.90
10901;DHT22;5503;53.208;10.392;2024-02-26T06:31:55;3.40;99.90
10901;DHT22;5503;53.208;10.392;2024-02-26T06:34:22;3.40;99.90
10901;DHT22;5503;53.208;10.392;2024-02-26T06:36:49;3.30;1.00
10901;DHT22;5503;53.208;10.392;2024-02-26T06:39:17;3.40;99.90
10901;DHT22;5503;53.208;10.392;2024-02-26T06:41:44;4.40;99.90
10901;DHT22;5503;53.208;10.392;2024-02-26T06:44:12;3.60;99.90
10901;DHT22;5503;53.208;10.392;2024-02-26T06:46:39;3.80;99.90
10901;DHT22;5503;53.208;10.392;2024-02-26T06:49:06;3.90;99.90
10901;DHT22;5503;53.208;10.392;2024-02-26T06:51:33;3.80;99.90
10901;DHT22;5503;53.208;10.392;2024-02-26T06:54:00;3.60;1.00
10901;DHT22;5503;53.208;10.392;2024-02-26T06:56:28;3.60;1.00
10901;DHT22;5503;53.208;10.392;2024-02-26T06:58:55;3.60;1.00
10901;DHT22;5503;53.208;10.392;2024-02-26T07:01:22;3.60;1.00
10901;DHT22;5503;53.208;10.392;2024-02-26T07:03:48;3.60;1.00
10901;DHT22;5503;53.208;10.392;2024-02-26T07:06:15;3.60;1.00
10901;DHT22;5503;53.208;10.392;2024-02-26T07:08:42;3.70;1.00
10901;DHT22;5503;53.208;10.392;2024-02-26T07:11:10;3.80;1.00
10901;DHT22;5503;53.208;10.392;2024-02-26T07:13:39;3.80;1.00
10901;DHT22;5503;53.208;10.392;2024-02-26T07:16:08;3.90;1.00
10901;DHT22;5503;53.208;10.392;2024-02-26T07:18:35;3.90;1.00
10901;DHT22;5503;53.208;10.392;2024-02-26T07:23:30;4.10;1.00
10901;DHT22;5503;53.208;10.392;2024-02-26T07:25:57;4.10;1.00
10901;DHT22;5503;53.208;10.392;2024-02-26T07:28:24;4.20;1.00
10901;DHT22;5503;53.208;10.392;2024-02-26T07:30:52;4.30;1.00
10901;DHT22;5503;53.208;10.392;2024-02-26T07:33:19;4.30;1.00
10901;DHT22;5503;53.208;10.392;2024-02-26T07:35:46;4.30;1.00
10901;DHT22;5503;53.208;10.392;2024-02-26T07:38:13;4.30;1.00
10901;DHT22;5503;53.208;10.392;2024-02-26T07:40:40;4.10;1.00
10901;DHT22;5503;53.208;10.392;2024-02-26T07:43:06;4.60;1.00
10901;DHT22;5503;53.208;10.392;2024-02-26T07:45:33;4.80;1.00
10901;DHT22;5503;53.208;10.392;2024-02-26T07:48:03;4.80;1.00
10901;DHT22;5503;53.208;10.392;2024-02-26T07:50:30;4.80;1.00
10901;DHT22;5503;53.208;10.392;2024-02-26T07:52:57;4.80;1.00
10901;DHT22;5503;53.208;10.392;2024-02-26T07:55:24;5.00;1.00
10901;DHT22;5503;53.208;10.392;2024-02-26T07:57:51;4.80;1.00
10901;DHT22;5503;53.208;10.392;2024-02-26T08:00:18;5.00;1.00
10901;DHT22;5503;53.208;10.392;2024-02-26T08:02:45;5.00;1.00
10901;DHT22;5503;53.208;10.392;2024-02-26T08:05:14;6.70;1.00
10901;DHT22;5503;53.208;10.392;2024-02-26T08:07:41;5.20;1.00
10901;DHT22;5503;53.208;10.392;2024-02-26T08:10:08;5.20;1.00
10901;DHT22;5503;53.208;10.392;2024-02-26T08:12:35;5.30;1.00
10901;DHT22;5503;53.208;10.392;2024-02-26T08:15:03;5.30;1.00
10901;DHT22;5503;53.208;10.392;2024-02-26T08:17:30;5.30;1.00
10901;DHT22;5503;53.208;10.392;2024-02-26T08:19:59;5.40;1.00
10901;DHT22;5503;53.208;10.392;2024-02-26T08:22:27;5.30;1.00
10901;DHT22;5503;53.208;10.392;2024-02-26T08:24:54;5.40;1.00
10901;DHT22;5503;53.208;10.392;2024-02-26T08:27:20;5.30;1.00
10901;DHT22;5503;53.208;10.392;2024-02-26T08:29:46;5.20;1.00
10901;DHT22;5503;53.208;10.392;2024-02-26T08:32:13;5.10;16.00
10901;DHT22;5503;53.208;10.392;2024-02-26T08:34:40;5.00;99.90
10901;DHT22;5503;53.208;10.392;2024-02-26T08:37:07;4.80;99.90
10901;DHT22;5503;53.208;10.392;2024-02-26T08:39:36;4.70;1.00
10901;DHT22;5503;53.208;10.392;2024-02-26T08:42:04;4.60;1.00
10901;DHT22;5503;53.208;10.392;2024-02-26T08:44:31;4.60;1.00
10901;DHT22;5503;53.208;10.392;2024-02-26T08:46:58;4.70;1.00
10901;DHT22;5503;53.208;10.392;2024-02-26T08:49:25;4.70;11.30
10901;DHT22;5503;53.208;10.392;2024-02-26T08:51:52;7.30;88.60
10901;DHT22;5503;53.208;10.392;2024-02-26T08:54:18;4.80;99.90
10901;DHT22;5503;53.208;10.392;2024-02-26T08:56:47;4.90;1.00
10901;DHT22;5503;53.208;10.392;2024-02-26T08:59:14;5.10;1.00
10901;DHT22;5503;53.208;10.392;2024-02-26T09:01:41;5.30;1.00
10901;DHT22;5503;53.208;10.392;2024-02-26T09:04:08;5.60;1.00
10901;DHT22;5503;53.208;10.392;2024-02-26T09:06:35;5.60;1.00
10901;DHT22;5503;53.208;10.392;2024-02-26T09:09:02;5.80;1.00
10901;DHT22;5503;53.208;10.392;2024-02-26T09:11:29;5.80;99.90
10901;DHT22;5503;53.208;10.392;2024-02-26T09:13:57;5.80;99.90
10901;DHT22;5503;53.208;10.392;2024-02-26T09:16:24;5.80;1.00
10901;DHT22;5503;53.208;10.392;2024-02-26T09:18:51;5.30;1.00
10901;DHT22;5503;53.208;10.392;2024-02-26T09:21:18;5.80;1.00
10901;DHT22;5503;53.208;10.392;2024-02-26T09:23:48;5.80;1.00
10901;DHT22;5503;53.208;10.392;2024-02-26T09:26:15;5.80;1.00
10901;DHT22;5503;53.208;10.392;2024-02-26T09:28:42;5.70;1.00
10901;DHT22;5503;53.208;10.392;2024-02-26T09:31:10;4.30;1.00
10901;DHT22;5503;53.208;10.392;2024-02-26T09:33:37;5.60;29.70
10901;DHT22;5503;53.208;10.392;2024-02-26T09:36:04;5.60;1.00
10901;DHT22;5503;53.208;10.392;2024-02-26T09:38:32;5.70;1.00
10901;DHT22;5503;53.208;10.392;2024-02-26T09:41:02;5.80;1.00
10901;DHT22;5503;53.208;10.392;2024-02-26T09:43:35;5.70;1.00
10901;DHT22;5503;53.208;10.392;2024-02-26T09:46:02;5.80;2.80
10901;DHT22;5503;53.208;10.392;2024-02-26T09:48:32;5.80;1.00
10901;DHT22;5503;53.208;10.392;2024-02-26T09:51:00;5.80;1.00
10901;DHT22;5503;53.208;10.392;2024-02-26T09:53:28;5.80;53.20
10901;DHT22;5503;53.208;10.392;2024-02-26T09:55:57;5.80;99.90
10901;DHT22;5503;53.208;10.392;2024-02-26T09:58:25;5.90;99.90
10901;DHT22;5503;53.208;10.392;2024-02-26T10:00:55;6.10;4.70
10901;DHT22;5503;53.208;10.392;2024-02-26T10:03:27;6.30;1.00
10901;DHT22;5503;53.208;10.392;2024-02-26T10:05:56;6.40;1.00
10901;DHT22;5503;53.208;10.392;2024-02-26T10:08:24;6.60;1.00
10901;DHT22;5503;53.208;10.392;2024-02-26T10:10:52;6.70;99.90
10901;DHT22;5503;53.208;10.392;2024-02-26T10:13:19;6.80;99.90
10901;DHT22;5503;53.208;10.392;2024-02-26T10:15:46;5.40;99.90
10901;DHT22;5503;53.208;10.392;2024-02-26T10:18:13;6.60;99.90
10901;DHT22;5503;53.208;10.392;2024-02-26T10:20:40;6.50;1.00
10901;DHT22;5503;53.208;10.392;2024-02-26T10:23:08;6.80;1.00
10901;DHT22;5503;53.208;10.392;2024-02-26T10:25:35;7.10;99.90
10901;DHT22;5503;53.208;10.392;2024-02-26T10:28:02;7.30;1.00
10901;DHT22;5503;53.208;10.392;2024-02-26T10:30:29;7.40;1.00
10901;DHT22;5503;53.208;10.392;2024-02-26T10:32:57;7.40;1.00
10901;DHT22;5503;53.208;10.392;2024-02-26T10:35:24;7.40;1.00
10901;DHT22;5503;53.208;10.392;2024-02-26T10:37:51;7.40;1.00
10901;DHT22;5503;53.208;10.392;2024-02-26T10:40:20;8.90;1.00
10901;DHT22;5503;53.208;10.392;2024-02-26T10:42:47;7.30;99.90
10901;DHT22;5503;53.208;10.392;2024-02-26T10:45:14;7.50;65.00
10901;DHT22;5503;53.208;10.392;2024-02-26T10:47:41;7.50;1.00
10901;DHT22;5503;53.208;10.392;2024-02-26T10:50:09;7.40;28.10
10901;DHT22;5503;53.208;10.392;2024-02-26T10:52:36;7.40;1.00
10901;DHT22;5503;53.208;10.392;2024-02-26T10:55:04;8.40;99.90
10901;DHT22;5503;53.208;10.392;2024-02-26T10:57:35;7.60;1.00
10901;DHT22;5503;53.208;10.392;2024-02-26T11:00:05;7.60;1.00
10901;DHT22;5503;53.208;10.392;2024-02-26T11:02:33;7.90;13.80
10901;DHT22;5503;53.208;10.392;2024-02-26T11:05:02;8.40;1.00
10901;DHT22;5503;53.208;10.392;2024-02-26T11:07:30;8.60;1.00
10901;DHT22;5503;53.208;10.392;2024-02-26T11:09:58;8.60;1.00
10901;DHT22;5503;53.208;10.392;2024-02-26T11:12:27;8.70;47.70
10901;DHT22;5503;53.208;10.392;2024-02-26T11:14:57;8.90;1.00
10901;DHT22;5503;53.208;10.392;2024-02-26T11:17:27;9.30;1.00
10901;DHT22;5503;53.208;10.392;2024-02-26T11:19:57;8.80;1.00
10901;DHT22;5503;53.208;10.392;2024-02-26T11:22:25;8.70;1.00
10901;DHT22;5503;53.208;10.392;2024-02-26T11:24:53;10.90;1.00
10901;DHT22;5503;53.208;10.392;2024-02-26T11:27:25;9.20;99.90
10901;DHT22;5503;53.208;10.392;2024-02-26T11:29:57;9.20;99.90
10901;DHT22;5503;53.208;10.392;2024-02-26T11:32:26;9.30;1.00
10901;DHT22;5503;53.208;10.392;2024-02-26T11:34:56;9.00;1.00
10901;DHT22;5503;53.208;10.392;2024-02-26T11:37:23;9.00;1.00
10901;DHT22;5503;53.208;10.392;2024-02-26T11:39:51;11.80;99.90
10901;DHT22;5503;53.208;10.392;2024-02-26T11:42:23;9.60;1.00
10901;DHT22;5503;53.208;10.392;2024-02-26T11:44:50;9.80;1.00
10901;DHT22;5503;53.208;10.392;2024-02-26T11:47:20;10.00;1.00
10901;DHT22;5503;53.208;10.392;2024-02-26T11:49:47;9.90;1.00
10901;DHT22;5503;53.208;10.392;2024-02-26T11:52:15;9.90;1.00
10901;DHT22;5503;53.208;10.392;2024-02-26T11:54:46;10.00;1.00
10901;DHT22;5503;53.208;10.392;2024-02-26T11:57:27;10.00;99.90
10901;DHT22;5503;53.208;10.392;2024-02-26T11:59:54;10.00;1.00
10901;DHT22;5503;53.208;10.392;2024-02-26T12:02:44;10.30;1.00
10901;DHT22;5503;53.208;10.392;2024-02-26T12:05:13;10.20;99.90
10901;DHT22;5503;53.208;10.392;2024-02-26T12:07:44;10.30;99.90
10901;DHT22;5503;53.208;10.392;2024-02-26T12:10:25;10.60;4.70
10901;DHT22;5503;53.208;10.392;2024-02-26T12:12:55;10.60;1.00
10901;DHT22;5503;53.208;10.392;2024-02-26T12:15:27;11.70;1.00
10901;DHT22;5503;53.208;10.392;2024-02-26T12:17:58;10.50;99.90
10901;DHT22;5503;53.208;10.392;2024-02-26T12:20:26;10.70;98.30
10901;DHT22;5503;53.208;10.392;2024-02-26T12:22:54;13.40;1.00
10901;DHT22;5503;53.208;10.392;2024-02-26T12:25:24;10.30;1.00
10901;DHT22;5503;53.208;10.392;2024-02-26T12:27:51;10.20;6.70
10901;DHT22;5503;53.208;10.392;2024-02-26T12:30:18;10.10;45.30
10901;DHT22;5503;53.208;10.392;2024-02-26T12:32:46;10.10;47.90
10901;DHT22;5503;53.208;10.392;2024-02-26T12:35:15;10.40;1.00
10901;DHT22;5503;53.208;10.392;2024-02-26T12:37:43;10.20;1.00
10901;DHT22;5503;53.208;10.392;2024-02-26T12:40:11;10.30;1.00
10901;DHT22;5503;53.208;10.392;2024-02-26T12:42:39;10.60;1.00
10901;DHT22;5503;53.208;10.392;2024-02-26T12:45:07;10.90;1.00
10901;DHT22;5503;53.208;10.392;2024-02-26T12:47:36;10.80;1.00
10901;DHT22;5503;53.208;10.392;2024-02-26T12:50:05;10.50;1.00
10901;DHT22;5503;53.208;10.392;2024-02-26T12:52:34;10.40;34.00
10901;DHT22;5503;53.208;10.392;2024-02-26T12:55:02;10.30;99.90
10901;DHT22;5503;53.208;10.392;2024-02-26T12:57:30;9.50;99.90
10901;DHT22;5503;53.208;10.392;2024-02-26T12:59:58;10.60;99.90
10901;DHT22;5503;53.208;10.392;2024-02-26T13:02:25;10.30;99.90
10901;DHT22;5503;53.208;10.392;2024-02-26T13:04:52;10.20;99.90
10901;DHT22;5503;53.208;10.392;2024-02-26T13:07:21;10.30;99.90
10901;DHT22;5503;53.208;10.392;2024-02-26T13:09:49;10.20;99.90
10901;DHT22;5503;53.208;10.392;2024-02-26T13:12:17;10.20;99.90
10901;DHT22;5503;53.208;10.392;2024-02-26T13:14:44;10.50;99.90
10901;DHT22;5503;53.208;10.392;2024-02-26T13:17:11;10.70;1.00
10901;DHT22;5503;53.208;10.392;2024-02-26T13:19:43;10.80;1.00
10901;DHT22;5503;53.208;10.392;2024-02-26T13:22:15;10.70;1.00
10901;DHT22;5503;53.208;10.392;2024-02-26T13:24:42;11.10;1.00
10901;DHT22;5503;53.208;10.392;2024-02-26T13:27:10;9.60;1.00
10901;DHT22;5503;53.208;10.392;2024-02-26T13:29:37;12.90;1.00
10901;DHT22;5503;53.208;10.392;2024-02-26T13:32:04;10.90;1.00
10901;DHT22;5503;53.208;10.392;2024-02-26T13:34:32;10.90;1.00
10901;DHT22;5503;53.208;10.392;2024-02-26T13:37:01;10.90;1.00
10901;DHT22;5503;53.208;10.392;2024-02-26T13:39:28;11.00;1.00
10901;DHT22;5503;53.208;10.392;2024-02-26T13:41:56;10.90;1.00
10901;DHT22;5503;53.208;10.392;2024-02-26T13:44:24;11.10;1.00
10901;DHT22;5503;53.208;10.392;2024-02-26T13:46:51;11.00;1.00
10901;DHT22;5503;53.208;10.392;2024-02-26T13:49:17;11.20;1.00
10901;DHT22;5503;53.208;10.392;2024-02-26T13:51:44;11.30;1.00
10901;DHT22;5503;53.208;10.392;2024-02-26T13:54:11;11.70;1.00
10901;DHT22;5503;53.208;10.392;2024-02-26T13:56:40;11.60;1.00
10901;DHT22;5503;53.208;10.392;2024-02-26T13:59:07;11.50;1.00
10901;DHT22;5503;53.208;10.392;2024-02-26T14:01:35;11.40;1.00
10901;DHT22;5503;53.208;10.392;2024-02-26T14:04:02;11.00;1.00
10901;DHT22;5503;53.208;10.392;2024-02-26T14:06:30;10.70;99.90
10901;DHT22;5503;53.208;10.392;2024-02-26T14:08:57;10.50;99.90
10901;DHT22;5503;53.208;10.392;2024-02-26T14:11:24;10.40;1.00
10901;DHT22;5503;53.208;10.392;2024-02-26T14:13:52;10.20;1.00
10901;DHT22;5503;53.208;10.392;2024-02-26T14:16:18;10.10;1.00
10901;DHT22;5503;53.208;10.392;2024-02-26T14:18:48;10.30;1.00
10901;DHT22;5503;53.208;10.392;2024-02-26T14:21:15;13.10;99.90
10901;DHT22;5503;53.208;10.392;2024-02-26T14:23:42;10.40;1.00
10901;DHT22;5503;53.208;10.392;2024-02-26T14:26:10;10.60;99.90
10901;DHT22;5503;53.208;10.392;2024-02-26T14:28:37;10.50;99.90
10901;DHT22;5503;53.208;10.392;2024-02-26T14:31:06;10.60;99.90
10901;DHT22;5503;53.208;10.392;2024-02-26T14:33:37;10.50;99.90
10901;DHT22;5503;53.208;10.392;2024-02-26T14:36:06;10.30;1.00
10901;DHT22;5503;53.208;10.392;2024-02-26T14:38:33;10.30;1.00
10901;DHT22;5503;53.208;10.392;2024-02-26T14:41:00;10.50;1.00
10901;DHT22;5503;53.208;10.392;2024-02-26T14:43:27;10.60;1.00
10901;DHT22;5503;53.208;10.392;2024-02-26T14:45:54;10.70;99.90
10901;DHT22;5503;53.208;10.392;2024-02-26T14:48:20;10.70;99.90
10901;DHT22;5503;53.208;10.392;2024-02-26T14:50:49;10.70;1.00
10901;DHT22;5503;53.208;10.392;2024-02-26T14:53:18;10.70;1.00
10901;DHT22;5503;53.208;10.392;2024-02-26T14:55:45;10.70;99.90
10901;DHT22;5503;53.208;10.392;2024-02-26T14:58:12;10.40;1.00
10901;DHT22;5503;53.208;10.392;2024-02-26T15:00:39;12.50;1.00
10901;DHT22;5503;53.208;10.392;2024-02-26T15:03:06;10.20;1.00
10901;DHT22;5503;53.208;10.392;2024-02-26T15:05:34;10.10;99.90
10901;DHT22;5503;53.208;10.392;2024-02-26T15:08:01;10.20;94.90
10901;DHT22;5503;53.208;10.392;2024-02-26T15:10:29;10.30;75.60
10901;DHT22;5503;53.208;10.392;2024-02-26T15:12:56;11.30;99.90
10901;DHT22;5503;53.208;10.392;2024-02-26T15:15:23;10.10;1.00
10901;DHT22;5503;53.208;10.392;2024-02-26T15:17:50;10.20;1.00
10901;DHT22;5503;53.208;10.392;2024-02-26T15:20:18;10.10;1.00
10901;DHT22;5503;53.208;10.392;2024-02-26T15:22:45;10.00;1.00
10901;DHT22;5503;53.208;10.392;2024-02-26T15:25:12;9.90;83.50
10901;DHT22;5503;53.208;10.392;2024-02-26T15:27:41;9.80;99.90
10901;DHT22;5503;53.208;10.392;2024-02-26T15:30:08;9.80;99.90
10901;DHT22;5503;53.208;10.392;2024-02-26T15:32:35;9.90;99.90
10901;DHT22;5503;53.208;10.392;2024-02-26T15:35:02;12.50;99.90
10901;DHT22;5503;53.208;10.392;2024-02-26T15:37:29;10.00;99.90
10901;DHT22;5503;53.208;10.392;2024-02-26T15:39:56;9.90;1.00
10901;DHT22;5503;53.208;10.392;2024-02-26T15:42:23;9.80;1.00
10901;DHT22;5503;53.208;10.392;2024-02-26T15:44:52;9.60;1.00
10901;DHT22;5503;53.208;10.392;2024-02-26T15:47:18;9.40;15.90
10901;DHT22;5503;53.208;10.392;2024-02-26T15:49:45;11.30;55.30
10901;DHT22;5503;53.208;10.392;2024-02-26T15:52:12;9.20;84.80
10901;DHT22;5503;53.208;10.392;2024-02-26T15:54:39;9.30;99.90
10901;DHT22;5503;53.208;10.392;2024-02-26T15:57:06;7.40;1.00